createdAt,value
2023-11-23T00:02:09.852Z,7.40
2023-11-23T00:05:12.275Z,7.13
2023-11-23T00:08:14.696Z,5.72
2023-11-23T00:11:16.567Z,5.30
2023-11-23T00:14:18.586Z,7.28
2023-11-23T00:17:20.713Z,4.00
2023-11-23T00:20:22.495Z,5.18
2023-11-23T00:23:24.331Z,6.20
2023-11-23T00:26:26.157Z,7.15
2023-11-23T00:29:33.842Z,5.57
2023-11-23T00:32:35.662Z,6.25
2023-11-23T00:35:38.290Z,4.28
2023-11-23T00:38:42.413Z,5.38
2023-11-23T00:41:44.291Z,5.50
2023-11-23T00:44:46.589Z,4.38
2023-11-23T00:47:48.443Z,4.75
2023-11-23T00:50:50.328Z,5.70
2023-11-23T00:53:52.480Z,6.30
2023-11-23T00:56:54.989Z,6.50
2023-11-23T00:59:56.909Z,5.53
2023-11-23T01:02:59.074Z,6.88
2023-11-23T01:06:01.034Z,6.20
2023-11-23T01:09:04.127Z,5.05
2023-11-23T01:12:09.865Z,5.47
2023-11-23T01:15:13.498Z,5.97
2023-11-23T01:18:16.472Z,9.13
2023-11-23T01:21:18.375Z,6.32
2023-11-23T01:24:20.175Z,6.53
2023-11-23T01:27:22.160Z,7.03
2023-11-23T01:30:23.920Z,7.65
2023-11-23T01:33:25.907Z,5.25
2023-11-23T01:36:28.665Z,7.13
2023-11-23T01:39:30.443Z,4.93
2023-11-23T01:42:32.392Z,4.90
2023-11-23T01:45:34.264Z,4.35
2023-11-23T01:48:36.323Z,6.22
2023-11-23T01:51:38.297Z,6.22
2023-11-23T01:54:40.492Z,6.03
2023-11-23T01:57:44.597Z,5.22
2023-11-23T02:03:49.562Z,6.07
2023-11-23T02:06:51.662Z,4.82
2023-11-23T02:09:53.926Z,5.82
2023-11-23T02:12:56.929Z,7.72
2023-11-23T02:15:58.833Z,10.98
2023-11-23T02:19:00.628Z,7.05
2023-11-23T02:22:02.392Z,6.93
2023-11-23T02:25:08.041Z,7.88
2023-11-23T02:28:10.598Z,8.65
2023-11-23T02:31:12.372Z,8.68
2023-11-23T02:34:14.207Z,7.60
2023-11-23T02:37:15.955Z,6.18
2023-11-23T02:40:17.701Z,5.50
2023-11-23T02:43:20.443Z,6.53
2023-11-23T02:46:22.231Z,6.47
2023-11-23T02:49:24.049Z,8.10
2023-11-23T02:52:26.018Z,6.82
2023-11-23T02:55:27.909Z,6.22
2023-11-23T02:58:29.804Z,8.18
2023-11-23T03:01:34.783Z,6.45
2023-11-23T03:04:36.647Z,5.22
2023-11-23T03:07:38.534Z,7.93
2023-11-23T03:10:41.069Z,7.68
2023-11-23T03:13:43.332Z,8.05
2023-11-23T03:16:45.891Z,6.85
2023-11-23T03:19:47.681Z,6.22
2023-11-23T03:22:49.425Z,7.50
2023-11-23T03:25:51.375Z,12.13
2023-11-23T03:28:53.755Z,9.38
2023-11-23T03:31:55.534Z,10.63
2023-11-23T03:34:57.313Z,8.77
2023-11-23T03:37:59.409Z,10.20
2023-11-23T03:41:02.303Z,11.73
2023-11-23T03:44:04.122Z,13.80
2023-11-23T03:47:06.151Z,8.82
2023-11-23T03:50:08.470Z,11.98
2023-11-23T03:53:11.124Z,12.77
2023-11-23T03:56:17.464Z,9.43
2023-11-23T03:59:19.305Z,7.07
2023-11-23T04:02:21.268Z,9.32
2023-11-23T04:05:23.235Z,9.60
2023-11-23T04:08:25.062Z,8.90
2023-11-23T04:11:27.855Z,9.10
2023-11-23T04:14:31.983Z,8.38
2023-11-23T04:17:34.078Z,7.63
2023-11-23T04:20:37.195Z,11.95
2023-11-23T04:23:38.923Z,11.98
2023-11-23T04:26:42.945Z,9.95
2023-11-23T04:29:44.699Z,10.02
2023-11-23T04:32:46.705Z,8.98
2023-11-23T04:35:48.579Z,10.55
2023-11-23T04:38:50.512Z,9.95
2023-11-23T04:41:52.325Z,10.02
2023-11-23T04:44:54.100Z,11.07
2023-11-23T04:47:56.106Z,10.02
2023-11-23T04:50:58.985Z,11.50
2023-11-23T04:54:00.850Z,10.48
2023-11-23T04:57:02.595Z,10.25
2023-11-23T05:00:05.808Z,11.98
2023-11-23T05:03:07.731Z,13.60
2023-11-23T05:06:10.222Z,11.43
2023-11-23T05:09:13.847Z,11.97
2023-11-23T05:12:15.573Z,13.65
2023-11-23T05:15:18.193Z,13.60
2023-11-23T05:18:20.221Z,11.93
2023-11-23T05:21:22.097Z,12.82
2023-11-23T05:24:25.838Z,12.00
2023-11-23T05:27:27.807Z,13.48
2023-11-23T05:30:29.595Z,14.10
2023-11-23T05:33:31.418Z,15.18
2023-11-23T05:36:33.364Z,13.75
2023-11-23T05:39:35.162Z,14.60
2023-11-23T05:42:37.207Z,10.77
2023-11-23T05:45:39.215Z,9.25
2023-11-23T05:48:41.175Z,14.20
2023-11-23T05:51:42.934Z,18.48
2023-11-23T05:54:45.520Z,14.35
2023-11-23T05:57:47.317Z,15.20
2023-11-23T06:00:54.343Z,14.30
2023-11-23T06:04:01.981Z,11.73
2023-11-23T06:07:04.763Z,17.35
2023-11-23T06:10:07.624Z,14.77
2023-11-23T06:13:09.505Z,14.82
2023-11-23T06:16:11.751Z,17.13
2023-11-23T06:19:14.162Z,15.85
2023-11-23T06:22:16.108Z,21.17
2023-11-23T06:25:17.868Z,15.40
2023-11-23T06:28:19.639Z,11.60
2023-11-23T06:31:21.560Z,14.63
2023-11-23T06:34:24.196Z,15.15
2023-11-23T06:37:25.965Z,18.23
2023-11-23T06:40:29.724Z,19.50
2023-11-23T06:43:31.622Z,18.67
2023-11-23T06:46:33.998Z,17.77
2023-11-23T06:49:36.303Z,18.30
2023-11-23T06:52:38.646Z,17.23
2023-11-23T06:55:40.446Z,17.13
2023-11-23T06:58:43.118Z,17.65
2023-11-23T07:01:45.057Z,14.15
2023-11-23T07:04:47.011Z,17.88
2023-11-23T07:07:49.760Z,19.60
2023-11-23T07:10:54.258Z,11.32
2023-11-23T07:13:57.152Z,17.55
2023-11-23T07:17:05.417Z,17.30
2023-11-23T07:20:08.768Z,16.77
2023-11-23T07:26:13.857Z,18.77
2023-11-23T07:29:15.753Z,22.15
2023-11-23T07:32:17.829Z,14.95
2023-11-23T07:35:19.738Z,16.80
2023-11-23T07:38:21.731Z,19.35
2023-11-23T07:41:23.665Z,18.08
2023-11-23T07:44:26.890Z,15.43
2023-11-23T07:47:29.227Z,18.95
2023-11-23T07:50:31.363Z,16.90
2023-11-23T07:53:33.296Z,17.92
2023-11-23T07:56:35.262Z,18.77
2023-11-23T07:59:38.044Z,18.13
2023-11-23T08:02:39.949Z,18.08
2023-11-23T08:05:43.308Z,17.17
2023-11-23T08:11:47.151Z,17.60
2023-11-23T08:14:49.047Z,16.33
2023-11-23T08:17:58.676Z,19.55
2023-11-23T08:21:07.311Z,19.95
2023-11-23T08:24:09.610Z,15.35
2023-11-23T08:27:11.608Z,20.02
2023-11-23T08:30:16.913Z,16.90
2023-11-23T08:33:19.222Z,17.88
2023-11-23T08:36:21.630Z,19.25
2023-11-23T08:39:23.418Z,18.42
2023-11-23T08:42:25.239Z,19.23
2023-11-23T08:45:27.698Z,19.17
2023-11-23T08:48:29.600Z,16.80
2023-11-23T08:51:31.414Z,22.30
2023-11-23T08:54:33.223Z,20.77
2023-11-23T08:57:35.077Z,18.00
2023-11-23T09:00:36.947Z,16.40
2023-11-23T09:03:39.090Z,17.48
2023-11-23T09:06:41.533Z,19.47
2023-11-23T09:09:43.317Z,16.55
2023-11-23T09:12:45.044Z,18.23
2023-11-23T09:15:46.815Z,14.95
2023-11-23T09:18:48.964Z,16.10
2023-11-23T09:21:51.959Z,16.55
2023-11-23T09:24:53.666Z,15.73
2023-11-23T09:27:55.419Z,16.50
2023-11-23T09:30:57.305Z,16.73
2023-11-23T09:33:59.124Z,14.43
2023-11-23T09:37:01.135Z,16.08
2023-11-23T09:40:06.322Z,15.38
2023-11-23T09:43:09.097Z,15.77
2023-11-23T09:46:11.268Z,16.38
2023-11-23T09:49:19.613Z,15.75
2023-11-23T09:52:21.613Z,17.67
2023-11-23T09:55:26.576Z,19.35
2023-11-23T09:58:28.609Z,15.40
2023-11-23T10:01:32.442Z,16.92
2023-11-23T10:04:34.634Z,19.52
2023-11-23T10:07:37.009Z,15.07
2023-11-23T10:10:39.923Z,15.65
2023-11-23T10:13:43.778Z,18.52
2023-11-23T10:16:45.742Z,19.75
2023-11-23T10:19:48.842Z,16.58
2023-11-23T10:22:50.909Z,21.02
2023-11-23T10:25:56.798Z,19.15
2023-11-23T10:29:00.347Z,20.63
2023-11-23T10:32:05.239Z,16.13
2023-11-23T10:35:10.817Z,17.42
2023-11-23T10:38:14.396Z,16.13
2023-11-23T10:41:16.753Z,18.05
2023-11-23T10:44:19.816Z,16.15
2023-11-23T10:47:23.852Z,17.02
2023-11-23T10:50:28.671Z,17.90
2023-11-23T10:53:30.473Z,18.42
2023-11-23T10:56:35.879Z,15.95
2023-11-23T10:59:39.041Z,17.83
2023-11-23T11:02:41.710Z,17.85
2023-11-23T11:05:48.083Z,17.90
2023-11-23T11:09:17.163Z,16.92
2023-11-23T11:12:19.357Z,13.32
2023-11-23T11:15:22.633Z,15.90
2023-11-23T11:21:48.370Z,14.77
2023-11-23T11:24:58.962Z,16.67
2023-11-23T11:28:00.780Z,13.55
2023-11-23T11:31:08.749Z,14.32
2023-11-23T11:34:13.673Z,15.77
2023-11-23T11:37:16.598Z,15.35
2023-11-23T11:40:18.588Z,15.17
2023-11-23T11:43:21.180Z,14.40
2023-11-23T11:46:22.984Z,13.13
2023-11-23T11:49:25.744Z,14.77
2023-11-23T11:52:27.940Z,15.45
2023-11-23T11:55:30.662Z,11.52
2023-11-23T11:58:32.449Z,11.30
2023-11-23T12:01:35.275Z,11.95
2023-11-23T12:04:38.295Z,12.35
2023-11-23T12:07:40.551Z,12.35
2023-11-23T12:10:43.773Z,12.52
2023-11-23T12:13:46.483Z,12.60
2023-11-23T12:16:48.256Z,13.93
2023-11-23T12:19:52.962Z,12.57
2023-11-23T12:22:59.535Z,11.35
2023-11-23T12:26:02.397Z,11.90
2023-11-23T12:29:05.515Z,12.25
2023-11-23T12:32:07.352Z,10.52
2023-11-23T12:35:10.359Z,8.23
2023-11-23T12:38:12.787Z,14.65
2023-11-23T12:41:14.497Z,10.87
2023-11-23T12:44:16.342Z,8.25
2023-11-23T12:47:18.086Z,9.13
2023-11-23T12:50:22.990Z,10.38
2023-11-23T12:53:26.872Z,7.13
2023-11-23T12:56:29.395Z,9.48
2023-11-23T12:59:31.913Z,11.45
2023-11-23T13:02:35.380Z,8.90
2023-11-23T13:05:37.256Z,10.18
2023-11-23T13:08:39.195Z,8.88
2023-11-23T13:11:41.292Z,7.95
2023-11-23T13:14:43.579Z,8.63
2023-11-23T13:17:45.411Z,8.75
2023-11-23T13:20:47.929Z,11.20
2023-11-23T13:23:49.781Z,10.05
2023-11-23T13:26:52.443Z,9.75
2023-11-23T13:29:54.635Z,10.63
2023-11-23T13:32:59.408Z,13.02
2023-11-23T13:36:01.268Z,41.25
2023-11-23T13:39:09.827Z,10.52
2023-11-23T13:42:12.876Z,10.32
2023-11-23T13:45:17.154Z,11.57
2023-11-23T13:48:20.037Z,8.43
2023-11-23T13:51:23.957Z,10.43
2023-11-23T13:54:27.140Z,8.18
2023-11-23T13:57:28.926Z,7.87
2023-11-23T14:00:30.724Z,7.85
2023-11-23T14:03:33.560Z,8.75
2023-11-23T14:06:35.558Z,9.05
2023-11-23T14:09:37.442Z,10.82
2023-11-23T14:12:39.655Z,8.38
2023-11-23T14:15:41.663Z,9.80
2023-11-23T14:18:43.560Z,10.90
2023-11-23T14:21:48.802Z,11.52
2023-11-23T14:24:50.797Z,8.88
2023-11-23T14:27:54.206Z,10.68
2023-11-23T14:30:56.610Z,10.52
2023-11-23T14:33:58.971Z,10.88
2023-11-23T14:37:01.002Z,10.85
2023-11-23T14:40:14.901Z,9.55
2023-11-23T14:43:19.591Z,10.77
2023-11-23T14:46:22.900Z,7.05
2023-11-23T14:49:25.324Z,10.88
2023-11-23T14:52:28.396Z,10.32
2023-11-23T14:55:31.120Z,8.98
2023-11-23T14:58:33.814Z,10.10
2023-11-23T15:01:36.641Z,11.18
2023-11-23T15:04:38.796Z,11.70
2023-11-23T15:07:41.272Z,8.57
2023-11-23T15:10:43.179Z,9.20
2023-11-23T15:13:45.337Z,8.75
2023-11-23T15:16:48.224Z,11.15
2023-11-23T15:19:49.967Z,10.50
2023-11-23T15:22:52.172Z,8.68
2023-11-23T15:25:55.489Z,8.30
2023-11-23T15:35:14.181Z,8.60
2023-11-23T15:38:16.332Z,10.48
2023-11-23T15:41:18.737Z,10.73
2023-11-23T15:44:20.883Z,10.53
2023-11-23T15:47:24.106Z,9.05
2023-11-23T15:53:31.102Z,11.68
2023-11-23T15:56:32.997Z,11.80
2023-11-23T15:59:34.819Z,15.57
2023-11-23T16:02:41.208Z,12.93
2023-11-23T16:05:43.002Z,12.00
2023-11-23T16:08:46.286Z,13.88
2023-11-23T16:14:50.931Z,14.90
2023-11-23T16:17:52.762Z,18.88
2023-11-23T16:20:57.429Z,15.32
2023-11-23T16:24:00.598Z,17.05
2023-11-23T16:27:02.398Z,15.43
2023-11-23T16:30:04.459Z,20.13
2023-11-23T16:33:06.265Z,17.30
2023-11-23T16:36:23.214Z,20.55
2023-11-23T16:39:32.494Z,16.30
2023-11-23T16:42:37.372Z,14.90
2023-11-23T16:45:39.408Z,17.45
2023-11-23T16:48:42.266Z,17.85
2023-11-23T16:51:44.201Z,16.73
2023-11-23T16:54:46.443Z,18.55
2023-11-23T16:57:48.475Z,20.08
2023-11-23T17:00:50.340Z,20.85
2023-11-23T17:03:52.542Z,18.92
2023-11-23T17:06:54.337Z,23.67
2023-11-23T17:09:56.112Z,16.50
2023-11-23T17:12:57.906Z,15.82
2023-11-23T17:15:59.746Z,17.98
2023-11-23T17:19:01.624Z,16.92
2023-11-23T17:22:04.707Z,18.38
2023-11-23T17:25:07.123Z,17.77
2023-11-23T17:28:09.287Z,14.20
2023-11-23T17:31:11.130Z,16.58
2023-11-23T17:34:13.373Z,15.93
2023-11-23T17:37:15.287Z,15.13
2023-11-23T17:40:17.090Z,14.52
2023-11-23T17:43:19.451Z,14.57
2023-11-23T17:46:23.642Z,14.68
2023-11-23T17:49:26.658Z,14.10
2023-11-23T17:52:28.413Z,10.95
2023-11-23T17:55:32.709Z,13.75
2023-11-23T17:58:34.398Z,16.45
2023-11-23T18:01:37.154Z,15.43
2023-11-23T18:04:39.753Z,12.98
2023-11-23T18:07:42.866Z,15.60
2023-11-23T18:10:44.818Z,16.83
2023-11-23T18:13:46.610Z,14.15
2023-11-23T18:16:48.348Z,14.82
2023-11-23T18:19:50.196Z,15.82
2023-11-23T18:22:51.995Z,14.52
2023-11-23T18:25:53.784Z,13.82
2023-11-23T18:28:55.568Z,15.25
2023-11-23T18:31:57.730Z,13.95
2023-11-23T18:34:59.574Z,15.20
2023-11-23T18:38:06.766Z,12.15
2023-11-23T18:41:11.917Z,9.32
2023-11-23T18:44:17.080Z,8.05
2023-11-23T18:47:22.522Z,9.02
2023-11-23T18:50:25.504Z,7.97
2023-11-23T18:53:27.753Z,5.72
2023-11-23T18:56:29.923Z,7.40
2023-11-23T18:59:31.904Z,7.97
2023-11-23T19:02:34.009Z,7.72
2023-11-23T19:05:36.198Z,6.50
2023-11-23T19:08:37.879Z,4.05
2023-11-23T19:11:40.019Z,4.60
2023-11-23T19:14:42.910Z,6.57
2023-11-23T19:17:45.408Z,4.05
2023-11-23T19:20:47.671Z,4.88
2023-11-23T19:23:49.829Z,3.78
2023-11-23T19:26:51.800Z,4.40
2023-11-23T19:29:54.739Z,4.32
2023-11-23T19:32:56.811Z,4.57
2023-11-23T19:35:59.081Z,6.90
2023-11-23T19:39:00.940Z,3.67
2023-11-23T19:42:03.893Z,3.50
2023-11-23T19:45:06.255Z,3.78
2023-11-23T19:48:08.891Z,3.45
2023-11-23T19:51:12.119Z,2.95
2023-11-23T19:54:14.633Z,4.93
2023-11-23T19:57:16.482Z,3.35
2023-11-23T20:00:18.612Z,3.03
2023-11-23T20:03:20.488Z,3.85
2023-11-23T20:06:22.383Z,3.35
2023-11-23T20:09:25.695Z,3.65
2023-11-23T20:15:30.623Z,2.30
2023-11-23T20:18:32.734Z,4.90
2023-11-23T20:21:34.614Z,4.18
2023-11-23T20:24:36.491Z,2.47
2023-11-23T20:27:38.402Z,3.88
2023-11-23T20:30:40.375Z,2.55
2023-11-23T20:33:42.670Z,2.88
2023-11-23T20:36:44.652Z,2.10
2023-11-23T20:39:46.700Z,2.83
2023-11-23T20:42:49.605Z,2.50
2023-11-23T20:45:52.010Z,2.60
2023-11-23T20:48:54.027Z,1.60
2023-11-23T20:51:55.862Z,2.30
2023-11-23T20:54:58.154Z,3.00
2023-11-23T20:58:00.386Z,3.83
2023-11-23T21:01:02.776Z,2.70
2023-11-23T21:04:05.108Z,2.47
2023-11-23T21:07:08.926Z,3.07
2023-11-23T21:10:11.312Z,4.50
2023-11-23T21:13:14.307Z,6.17
2023-11-23T21:16:16.235Z,2.63
2023-11-23T21:19:18.143Z,2.45
2023-11-23T21:22:20.004Z,4.28
2023-11-23T21:25:22.053Z,1.90
2023-11-23T21:28:23.796Z,2.00
2023-11-23T21:31:26.262Z,2.38
2023-11-23T21:34:27.996Z,2.47
2023-11-23T21:37:31.417Z,2.53
2023-11-23T21:40:33.937Z,1.90
2023-11-23T21:43:36.074Z,1.77
2023-11-23T21:46:37.960Z,2.30
2023-11-23T21:49:43.707Z,2.42
2023-11-23T21:52:45.473Z,1.30
2023-11-23T21:55:47.202Z,1.55
2023-11-23T21:58:49.009Z,1.58
2023-11-23T22:01:51.156Z,1.98
2023-11-23T22:04:52.906Z,1.52
2023-11-23T22:07:54.703Z,1.65
2023-11-23T22:10:56.782Z,3.55
2023-11-23T22:13:58.520Z,1.58
2023-11-23T22:17:00.553Z,2.78
2023-11-23T22:20:02.942Z,3.20
2023-11-23T22:23:05.421Z,2.97
2023-11-23T22:26:07.658Z,2.40
2023-11-23T22:29:10.557Z,2.17
2023-11-23T22:32:16.606Z,2.13
2023-11-23T22:35:18.678Z,2.33
2023-11-23T22:38:20.675Z,2.60
2023-11-23T22:41:22.931Z,3.35
2023-11-23T22:44:25.379Z,2.50
2023-11-23T22:47:27.213Z,3.73
2023-11-23T22:50:29.016Z,3.13
2023-11-23T22:53:31.042Z,2.97
2023-11-23T22:56:33.999Z,3.85
2023-11-23T22:59:35.785Z,4.93
2023-11-23T23:02:37.524Z,3.50
2023-11-23T23:05:39.288Z,2.85
2023-11-23T23:08:40.998Z,4.72
2023-11-23T23:11:42.727Z,2.38
2023-11-23T23:14:44.826Z,2.55
2023-11-23T23:17:47.222Z,2.47
2023-11-23T23:20:48.982Z,2.03
2023-11-23T23:23:50.778Z,2.65
2023-11-23T23:26:52.694Z,1.80
2023-11-23T23:29:54.442Z,1.92
2023-11-23T23:32:56.262Z,3.50
2023-11-23T23:35:58.338Z,2.67
2023-11-23T23:39:00.500Z,2.90
2023-11-23T23:42:02.936Z,2.10
2023-11-23T23:45:05.689Z,3.50
2023-11-23T23:48:07.508Z,1.70
2023-11-23T23:51:09.260Z,2.13
2023-11-23T23:54:10.974Z,2.60
2023-11-23T23:57:13.437Z,2.38
